createdAt,value
2022-09-13T00:00:41.624Z,72.54
2022-09-13T00:03:09.907Z,72.35
2022-09-13T00:05:37.671Z,72.70
2022-09-13T00:08:05.310Z,72.25
2022-09-13T00:10:34.586Z,71.74
2022-09-13T00:13:01.741Z,71.83
2022-09-13T00:15:28.516Z,72.28
2022-09-13T00:17:55.322Z,71.95
2022-09-13T00:20:21.901Z,72.00
2022-09-13T00:22:48.286Z,72.45
2022-09-13T00:25:15.106Z,72.75
2022-09-13T00:27:41.489Z,72.79
2022-09-13T00:30:08.719Z,72.65
2022-09-13T00:32:35.647Z,72.79
2022-09-13T00:35:03.637Z,72.72
2022-09-13T00:37:33.195Z,73.68
2022-09-13T00:40:01.184Z,73.85
2022-09-13T00:42:35.442Z,73.41
2022-09-13T00:45:14.201Z,73.92
2022-09-13T00:47:44.376Z,73.52
2022-09-13T00:50:13.474Z,73.24
2022-09-13T00:52:46.121Z,73.52
2022-09-13T00:55:28.043Z,73.60
2022-09-13T00:57:59.554Z,74.13
2022-09-13T01:00:26.354Z,74.84
2022-09-13T01:02:58.397Z,74.15
2022-09-13T01:05:30.479Z,74.42
2022-09-13T01:07:57.831Z,74.76
2022-09-13T01:10:24.470Z,74.69
2022-09-13T01:12:59.585Z,74.30
2022-09-13T01:15:26.123Z,73.90
2022-09-13T01:17:54.156Z,73.42
2022-09-13T01:20:25.639Z,73.34
2022-09-13T01:23:16.370Z,73.37
2022-09-13T01:26:15.311Z,73.69
2022-09-13T01:29:18.145Z,73.79
2022-09-13T01:32:20.031Z,74.26
2022-09-13T01:34:55.439Z,75.26
2022-09-13T01:37:40.784Z,74.58
2022-09-13T01:40:13.234Z,74.85
2022-09-13T01:43:13.617Z,75.15
2022-09-13T01:46:06.211Z,74.25
2022-09-13T01:49:03.176Z,73.65
2022-09-13T01:51:54.285Z,73.09
2022-09-13T01:54:23.689Z,72.67
2022-09-13T01:57:09.223Z,72.54
2022-09-13T01:59:47.651Z,73.88
2022-09-13T02:02:36.981Z,74.20
2022-09-13T02:05:11.729Z,75.21
2022-09-13T02:07:42.193Z,75.26
2022-09-13T02:10:15.952Z,75.51
2022-09-13T02:12:43.972Z,75.70
2022-09-13T02:15:16.124Z,74.44
2022-09-13T02:17:52.209Z,73.78
2022-09-13T02:20:25.078Z,73.80
2022-09-13T02:22:56.457Z,74.09
2022-09-13T02:25:26.509Z,74.14
2022-09-13T02:27:58.834Z,74.55
2022-09-13T02:30:27.119Z,75.18
2022-09-13T02:33:01.639Z,74.56
2022-09-13T02:35:38.564Z,74.98
2022-09-13T02:38:08.340Z,74.67
2022-09-13T02:40:49.479Z,73.56
2022-09-13T02:43:27.656Z,73.72
2022-09-13T02:46:16.842Z,74.04
2022-09-13T02:49:13.156Z,74.29
2022-09-13T02:52:01.074Z,74.26
2022-09-13T02:54:48.416Z,74.77
2022-09-13T02:57:22.306Z,75.06
2022-09-13T02:59:49.476Z,74.96
2022-09-13T03:02:19.690Z,74.54
2022-09-13T03:04:46.200Z,75.65
2022-09-13T03:07:14.596Z,75.76
2022-09-13T03:09:46.842Z,75.57
2022-09-13T03:12:44.264Z,75.43
2022-09-13T03:15:26.976Z,75.31
2022-09-13T03:18:12.251Z,75.95
2022-09-13T03:21:11.777Z,75.58
2022-09-13T03:23:47.229Z,75.61
2022-09-13T03:26:32.501Z,76.10
2022-09-13T03:29:24.256Z,75.13
2022-09-13T03:32:19.026Z,75.10
2022-09-13T03:35:13.697Z,75.95
2022-09-13T03:37:53.444Z,75.95
2022-09-13T03:40:35.357Z,75.56
2022-09-13T03:43:13.635Z,75.13
2022-09-13T03:45:48.449Z,75.31
2022-09-13T03:48:16.281Z,74.54
2022-09-13T03:50:45.412Z,74.67
2022-09-13T03:53:15.983Z,75.14
2022-09-13T03:55:43.485Z,75.98
2022-09-13T03:58:14.464Z,76.04
2022-09-13T04:00:41.394Z,76.26
2022-09-13T04:03:08.858Z,75.55
2022-09-13T04:05:35.795Z,76.01
2022-09-13T04:08:05.709Z,76.63
2022-09-13T04:10:33.432Z,76.80
2022-09-13T04:13:00.436Z,77.36
2022-09-13T04:15:33.486Z,77.14
2022-09-13T04:18:00.976Z,77.51
2022-09-13T04:20:27.520Z,77.46
2022-09-13T04:22:56.121Z,77.40
2022-09-13T04:25:23.416Z,77.18
2022-09-13T04:27:58.127Z,76.76
2022-09-13T04:30:24.826Z,77.44
2022-09-13T04:32:51.293Z,77.26
2022-09-13T04:35:19.700Z,77.33
2022-09-13T04:37:46.258Z,77.09
2022-09-13T04:40:14.466Z,77.36
2022-09-13T04:42:40.929Z,77.52
2022-09-13T04:45:08.194Z,77.55
2022-09-13T04:47:34.591Z,77.55
2022-09-13T04:50:00.961Z,77.14
2022-09-13T04:52:27.731Z,77.26
2022-09-13T04:54:54.600Z,77.93
2022-09-13T04:57:21.015Z,78.13
2022-09-13T04:59:47.419Z,77.92
2022-09-13T05:02:13.850Z,77.11
2022-09-13T05:04:40.351Z,77.45
2022-09-13T05:07:06.715Z,77.00
2022-09-13T05:09:33.169Z,76.72
2022-09-13T05:12:00.037Z,77.38
2022-09-13T05:14:26.517Z,77.44
2022-09-13T05:16:52.887Z,77.75
2022-09-13T05:19:19.270Z,77.30
2022-09-13T05:21:45.860Z,77.30
2022-09-13T05:24:12.340Z,76.92
2022-09-13T05:26:38.915Z,77.09
2022-09-13T05:29:05.492Z,77.13
2022-09-13T05:31:34.540Z,77.58
2022-09-13T05:34:03.929Z,78.65
2022-09-13T05:36:30.567Z,78.76
2022-09-13T05:39:26.030Z,78.23
2022-09-13T05:41:44.969Z,77.78
2022-09-13T05:44:13.641Z,78.22
2022-09-13T05:46:41.684Z,78.35
2022-09-13T05:49:08.340Z,78.34
2022-09-13T05:51:34.737Z,78.47
2022-09-13T05:54:01.194Z,78.13
2022-09-13T05:56:29.966Z,78.03
2022-09-13T05:58:56.602Z,77.85
2022-09-13T06:01:25.717Z,77.88
2022-09-13T06:03:55.591Z,77.95
2022-09-13T06:06:23.043Z,78.04
2022-09-13T06:08:55.533Z,77.88
2022-09-13T06:11:22.624Z,78.62
2022-09-13T06:13:49.045Z,78.61
2022-09-13T06:16:16.999Z,78.57
2022-09-13T06:18:43.905Z,78.39
2022-09-13T06:21:17.897Z,77.88
2022-09-13T06:23:46.279Z,77.90
2022-09-13T06:26:15.064Z,77.71
2022-09-13T06:28:41.794Z,77.36
2022-09-13T06:31:09.660Z,77.18
2022-09-13T06:33:38.209Z,77.10
2022-09-13T06:36:14.626Z,79.25
2022-09-13T06:38:42.081Z,78.93
2022-09-13T06:41:13.563Z,79.16
2022-09-13T06:43:40.965Z,78.70
2022-09-13T06:46:09.766Z,78.95
2022-09-13T06:48:38.635Z,78.81
2022-09-13T06:51:08.153Z,79.90
2022-09-13T06:53:36.174Z,80.75
2022-09-13T06:56:06.781Z,80.62
2022-09-13T06:58:34.694Z,79.83
2022-09-13T07:01:15.170Z,78.32
2022-09-13T07:03:44.147Z,77.55
2022-09-13T07:06:21.524Z,77.48
2022-09-13T07:08:50.270Z,77.37
2022-09-13T07:11:18.438Z,76.98
2022-09-13T07:13:49.559Z,76.76
2022-09-13T07:16:16.935Z,77.45
2022-09-13T07:18:43.458Z,76.39
2022-09-13T07:21:11.388Z,76.51
2022-09-13T07:23:40.602Z,75.99
2022-09-13T07:26:07.510Z,75.65
2022-09-13T07:28:43.222Z,75.33
2022-09-13T07:31:13.160Z,75.01
2022-09-13T07:33:41.579Z,74.29
2022-09-13T07:36:09.083Z,73.36
2022-09-13T07:38:37.067Z,73.14
2022-09-13T07:41:06.546Z,73.05
2022-09-13T07:43:34.408Z,73.67
2022-09-13T07:46:13.379Z,73.65
2022-09-13T07:48:42.138Z,73.30
2022-09-13T07:51:12.413Z,73.46
2022-09-13T07:53:41.023Z,74.28
2022-09-13T07:56:13.529Z,73.80
2022-09-13T07:58:42.191Z,72.15
2022-09-13T08:01:20.467Z,70.71
2022-09-13T08:03:56.355Z,70.12
2022-09-13T08:06:24.236Z,69.23
2022-09-13T08:08:51.516Z,69.16
2022-09-13T08:11:29.552Z,68.58
2022-09-13T08:13:55.961Z,68.66
2022-09-13T08:16:24.047Z,67.88
2022-09-13T08:18:53.257Z,68.50
2022-09-13T08:21:20.795Z,68.49
2022-09-13T08:23:47.729Z,68.96
2022-09-13T08:26:14.803Z,68.69
2022-09-13T08:28:42.907Z,68.69
2022-09-13T08:31:11.858Z,68.55
2022-09-13T08:33:40.209Z,68.63
2022-09-13T08:36:09.523Z,68.43
2022-09-13T08:38:35.943Z,68.90
2022-09-13T08:41:06.068Z,67.63
2022-09-13T08:43:39.601Z,66.95
2022-09-13T08:46:22.071Z,67.05
2022-09-13T08:48:52.354Z,67.52
2022-09-13T08:51:47.704Z,66.89
2022-09-13T08:54:16.824Z,66.48
2022-09-13T08:56:53.482Z,65.65
2022-09-13T08:59:32.085Z,65.49
2022-09-13T09:02:36.813Z,64.43
2022-09-13T09:05:17.209Z,64.10
2022-09-13T09:08:14.824Z,63.54
2022-09-13T09:10:45.760Z,62.54
2022-09-13T09:13:24.420Z,61.49
2022-09-13T09:15:55.055Z,61.34
2022-09-13T09:18:29.111Z,61.04
2022-09-13T09:20:58.169Z,59.82
2022-09-13T09:23:36.431Z,59.72
2022-09-13T09:26:19.229Z,59.83
2022-09-13T09:28:54.658Z,60.35
2022-09-13T09:31:34.545Z,58.95
2022-09-13T09:34:12.485Z,60.00
2022-09-13T09:36:50.169Z,59.54
2022-09-13T09:39:16.608Z,57.88
2022-09-13T09:41:44.454Z,55.67
2022-09-13T09:44:22.672Z,55.71
2022-09-13T09:47:00.066Z,57.49
2022-09-13T09:49:58.093Z,56.69
2022-09-13T09:52:37.123Z,58.01
2022-09-13T09:55:20.995Z,56.92
2022-09-13T09:57:52.906Z,57.32
2022-09-13T10:00:21.545Z,57.96
2022-09-13T10:02:51.864Z,57.27
2022-09-13T10:05:20.863Z,56.99
2022-09-13T10:07:57.508Z,56.39
2022-09-13T10:10:29.620Z,55.62
2022-09-13T10:12:57.401Z,55.83
2022-09-13T10:15:33.454Z,55.16
2022-09-13T10:21:21.870Z,55.33
2022-09-13T10:23:50.523Z,55.05
2022-09-13T10:26:25.682Z,55.27
2022-09-13T10:28:52.110Z,55.76
2022-09-13T10:31:20.787Z,54.71
2022-09-13T10:33:49.969Z,52.86
2022-09-13T10:36:35.268Z,51.83
2022-09-13T10:39:21.157Z,51.85
2022-09-13T10:41:55.919Z,52.45
2022-09-13T10:48:46.687Z,51.84
2022-09-13T10:51:28.031Z,51.64
2022-09-13T10:54:10.273Z,52.54
2022-09-13T10:56:37.144Z,53.42
2022-09-13T10:59:19.201Z,52.93
2022-09-13T11:02:13.648Z,52.21
2022-09-13T11:05:08.673Z,52.23
2022-09-13T11:07:47.159Z,54.00
2022-09-13T11:10:18.347Z,54.22
2022-09-13T11:13:07.646Z,53.09
2022-09-13T11:15:53.444Z,51.53
2022-09-13T11:18:32.137Z,51.02
2022-09-13T11:21:20.618Z,51.45
2022-09-13T11:24:09.497Z,51.00
2022-09-13T11:26:53.887Z,49.92
2022-09-13T11:29:56.993Z,49.51
2022-09-13T11:32:44.615Z,47.90
2022-09-13T11:35:45.922Z,48.38
2022-09-13T11:50:55.869Z,46.86
2022-09-13T11:53:35.036Z,45.72
2022-09-13T11:56:06.256Z,45.55
2022-09-13T11:58:50.262Z,45.83
2022-09-13T12:01:23.632Z,45.02
2022-09-13T12:04:00.893Z,45.65
2022-09-13T12:06:38.815Z,44.82
2022-09-13T12:09:15.008Z,46.07
2022-09-13T12:11:52.656Z,45.11
2022-09-13T12:14:24.618Z,45.53
2022-09-13T12:16:57.964Z,46.27
2022-09-13T12:19:36.441Z,46.62
2022-09-13T12:22:03.361Z,46.16
2022-09-13T12:24:50.572Z,46.39
2022-09-13T12:27:37.662Z,46.23
2022-09-13T12:30:14.855Z,46.41
2022-09-13T12:32:44.801Z,46.42
2022-09-13T12:35:19.892Z,47.68
2022-09-13T12:38:06.971Z,47.49
2022-09-13T12:40:52.169Z,47.51
2022-09-13T12:43:37.053Z,47.62
2022-09-13T12:46:12.739Z,48.46
2022-09-13T12:49:00.450Z,48.06
2022-09-13T12:51:48.778Z,48.21
2022-09-13T12:54:24.452Z,47.75
2022-09-13T12:57:02.876Z,48.09
2022-09-13T13:00:02.577Z,46.78
2022-09-13T13:02:38.049Z,46.21
2022-09-13T13:05:26.823Z,46.49
2022-09-13T13:07:57.871Z,45.83
2022-09-13T13:10:30.483Z,46.54
2022-09-13T13:13:10.242Z,46.32
2022-09-13T13:15:36.655Z,43.54
2022-09-13T13:18:27.294Z,43.33
2022-09-13T13:20:53.642Z,42.92
2022-09-13T13:23:26.959Z,43.78
2022-09-13T13:26:07.579Z,43.08
2022-09-13T13:28:42.923Z,43.73
2022-09-13T13:31:11.078Z,44.11
2022-09-13T13:33:49.461Z,44.17
2022-09-13T13:36:32.254Z,43.94
2022-09-13T13:39:01.340Z,44.08
2022-09-13T13:41:34.257Z,44.66
2022-09-13T13:44:02.446Z,44.57
2022-09-13T13:46:33.084Z,44.99
2022-09-13T13:49:31.749Z,44.26
2022-09-13T13:52:13.564Z,43.05
2022-09-13T13:54:44.050Z,42.59
2022-09-13T13:57:30.955Z,42.75
2022-09-13T14:00:16.703Z,42.19
2022-09-13T14:02:53.406Z,41.84
2022-09-13T14:05:44.929Z,41.92
2022-09-13T14:08:32.353Z,42.44
2022-09-13T14:11:33.201Z,41.84
2022-09-13T14:14:30.417Z,41.59
2022-09-13T14:17:40.372Z,41.03
2022-09-13T14:20:13.217Z,41.45
2022-09-13T14:22:39.624Z,41.73
2022-09-13T14:25:24.640Z,42.08
2022-09-13T14:27:56.721Z,42.00
2022-09-13T14:30:36.289Z,42.23
2022-09-13T14:33:05.214Z,42.49
2022-09-13T14:35:41.172Z,42.58
2022-09-13T14:38:20.965Z,42.26
2022-09-13T14:40:53.068Z,42.64
2022-09-13T14:43:26.304Z,41.97
2022-09-13T14:46:13.172Z,42.71
2022-09-13T14:48:46.260Z,43.39
2022-09-13T14:51:22.170Z,42.79
2022-09-13T14:53:53.156Z,43.58
2022-09-13T14:56:41.480Z,43.23
2022-09-13T14:59:23.046Z,43.09
2022-09-13T15:01:49.731Z,44.50
2022-09-13T15:04:18.494Z,44.87
2022-09-13T15:06:45.246Z,44.53
2022-09-13T15:09:11.607Z,44.11
2022-09-13T15:11:53.577Z,44.55
2022-09-13T15:14:31.146Z,44.60
2022-09-13T15:17:06.688Z,44.13
2022-09-13T15:19:43.165Z,44.21
2022-09-13T15:22:19.054Z,44.38
2022-09-13T15:24:51.789Z,44.72
2022-09-13T15:27:22.392Z,45.06
2022-09-13T15:29:54.555Z,44.19
2022-09-13T15:32:23.724Z,44.44
2022-09-13T15:34:51.002Z,44.28
2022-09-13T15:37:28.102Z,45.32
2022-09-13T15:40:18.808Z,45.15
2022-09-13T15:42:47.394Z,46.03
2022-09-13T15:45:14.185Z,45.76
2022-09-13T15:47:40.681Z,46.38
2022-09-13T15:50:07.469Z,46.50
2022-09-13T15:52:33.894Z,45.74
2022-09-13T15:55:00.789Z,45.75
2022-09-13T15:57:29.460Z,45.76
2022-09-13T15:59:56.747Z,45.79
2022-09-13T16:02:29.148Z,45.64
2022-09-13T16:04:56.207Z,46.41
2022-09-13T16:07:24.345Z,46.95
2022-09-13T16:09:51.253Z,47.03
2022-09-13T16:12:19.024Z,48.80
2022-09-13T16:14:46.388Z,49.27
2022-09-13T16:17:25.095Z,49.79
2022-09-13T16:19:51.989Z,49.96
2022-09-13T16:22:18.681Z,50.40
2022-09-13T16:24:45.716Z,52.20
2022-09-13T16:27:14.388Z,53.11
2022-09-13T16:29:44.560Z,53.04
2022-09-13T16:32:11.366Z,53.89
2022-09-13T16:34:38.334Z,54.40
2022-09-13T16:37:05.187Z,55.73
2022-09-13T16:39:31.660Z,57.53
2022-09-13T16:41:58.082Z,58.05
2022-09-13T16:44:24.564Z,58.72
2022-09-13T16:46:51.099Z,58.42
2022-09-13T16:49:17.718Z,57.89
2022-09-13T16:51:44.213Z,59.00
2022-09-13T16:54:10.559Z,59.01
2022-09-13T16:56:37.649Z,60.18
2022-09-13T16:59:04.074Z,60.22
2022-09-13T17:01:30.530Z,60.55
2022-09-13T17:03:57.497Z,60.66
2022-09-13T17:06:26.310Z,60.55
2022-09-13T17:09:01.860Z,60.53
2022-09-13T17:11:31.914Z,59.95
2022-09-13T17:13:59.681Z,59.68
2022-09-13T17:16:29.672Z,60.30
2022-09-13T17:18:58.337Z,60.66
2022-09-13T17:21:26.222Z,62.15
2022-09-13T17:23:53.282Z,62.28
2022-09-13T17:26:19.890Z,62.52
2022-09-13T17:28:46.516Z,62.67
2022-09-13T17:31:13.826Z,62.96
2022-09-13T17:33:40.486Z,62.89
2022-09-13T17:36:10.384Z,63.45
2022-09-13T17:38:37.624Z,64.82
2022-09-13T17:41:09.963Z,64.80
2022-09-13T17:43:44.725Z,64.80
2022-09-13T17:46:16.321Z,66.19
2022-09-13T17:48:43.493Z,64.38
2022-09-13T17:51:13.316Z,64.24
2022-09-13T17:53:42.095Z,64.20
2022-09-13T17:56:09.222Z,63.72
2022-09-13T17:58:36.220Z,63.56
2022-09-13T18:01:09.781Z,62.86
2022-09-13T18:03:38.177Z,62.59
2022-09-13T18:06:07.921Z,62.70
2022-09-13T18:08:36.117Z,62.48
2022-09-13T18:11:22.588Z,62.47
2022-09-13T18:13:49.381Z,62.52
2022-09-13T18:16:21.418Z,63.17
2022-09-13T18:18:50.197Z,63.43
2022-09-13T18:21:20.821Z,63.64
2022-09-13T18:23:49.183Z,64.67
2022-09-13T18:26:18.918Z,65.67
2022-09-13T18:28:46.021Z,66.75
2022-09-13T18:31:17.679Z,67.57
2022-09-13T18:33:45.287Z,67.20
2022-09-13T18:36:14.207Z,68.04
2022-09-13T18:38:46.221Z,68.30
2022-09-13T18:41:14.057Z,68.22
2022-09-13T18:43:42.281Z,68.52
2022-09-13T18:46:11.794Z,68.93
2022-09-13T18:48:41.098Z,68.91
2022-09-13T18:51:13.146Z,68.34
2022-09-13T18:53:40.139Z,67.91
2022-09-13T18:56:09.330Z,68.21
2022-09-13T18:58:37.602Z,67.98
2022-09-13T19:01:06.832Z,67.68
2022-09-13T19:03:34.321Z,67.40
2022-09-13T19:06:19.900Z,67.01
2022-09-13T19:08:47.687Z,67.19
2022-09-13T19:11:35.317Z,67.18
2022-09-13T19:14:01.121Z,67.36
2022-09-13T19:16:27.783Z,67.18
2022-09-13T19:18:54.302Z,66.82
2022-09-13T19:21:23.075Z,67.09
2022-09-13T19:23:59.465Z,66.93
2022-09-13T19:26:32.468Z,67.29
2022-09-13T19:29:08.514Z,67.59
2022-09-13T19:31:37.955Z,67.38
2022-09-13T19:34:06.243Z,67.75
2022-09-13T19:36:35.305Z,67.96
2022-09-13T19:39:03.539Z,67.82
2022-09-13T19:41:30.386Z,67.99
2022-09-13T19:44:00.101Z,68.40
2022-09-13T19:46:31.443Z,69.38
2022-09-13T19:48:59.428Z,69.86
2022-09-13T19:51:34.428Z,69.96
2022-09-13T19:54:01.078Z,70.27
2022-09-13T19:56:30.238Z,71.24
2022-09-13T19:58:57.643Z,71.25
2022-09-13T20:01:26.861Z,71.14
2022-09-13T20:03:58.660Z,71.51
2022-09-13T20:06:27.435Z,71.96
2022-09-13T20:08:59.052Z,73.01
2022-09-13T20:11:27.823Z,73.42
2022-09-13T20:13:55.652Z,74.11
2022-09-13T20:16:24.763Z,74.41
2022-09-13T20:18:52.119Z,75.23
2022-09-13T20:21:19.358Z,75.45
2022-09-13T20:23:46.674Z,74.91
2022-09-13T20:26:15.989Z,74.80
2022-09-13T20:28:42.920Z,74.00
2022-09-13T20:31:09.972Z,73.47
2022-09-13T20:33:36.744Z,73.17
2022-09-13T20:36:07.802Z,73.05
2022-09-13T20:38:34.431Z,73.07
2022-09-13T20:41:12.192Z,72.90
2022-09-13T20:43:39.995Z,73.52
2022-09-13T20:46:08.293Z,73.10
2022-09-13T20:48:35.566Z,73.12
2022-09-13T20:51:05.256Z,72.66
2022-09-13T20:53:33.052Z,72.12
2022-09-13T20:56:04.499Z,71.90
2022-09-13T20:58:31.333Z,71.69
2022-09-13T21:01:03.673Z,72.74
2022-09-13T21:03:30.580Z,73.97
2022-09-13T21:05:56.958Z,74.22
2022-09-13T21:08:41.716Z,73.67
2022-09-13T21:11:33.862Z,74.46
2022-09-13T21:14:06.266Z,75.15
2022-09-13T21:16:39.048Z,74.78
2022-09-13T21:19:06.121Z,74.27
2022-09-13T21:21:36.010Z,74.25
2022-09-13T21:24:04.638Z,73.95
2022-09-13T21:26:32.294Z,74.32
2022-09-13T21:28:59.036Z,74.12
2022-09-13T21:31:28.148Z,73.65
2022-09-13T21:33:59.834Z,73.94
2022-09-13T21:36:28.204Z,73.80
2022-09-13T21:38:55.895Z,73.75
2022-09-13T21:41:23.939Z,73.65
2022-09-13T21:43:50.418Z,72.92
2022-09-13T21:46:22.060Z,71.90
2022-09-13T21:48:55.471Z,71.28
2022-09-13T21:51:23.530Z,71.52
2022-09-13T21:53:58.481Z,72.31
2022-09-13T21:56:30.303Z,72.25
2022-09-13T21:58:59.128Z,72.11
2022-09-13T22:01:33.973Z,71.57
2022-09-13T22:04:01.369Z,71.04
2022-09-13T22:06:33.536Z,71.07
2022-09-13T22:09:03.788Z,71.20
2022-09-13T22:11:34.436Z,70.55
2022-09-13T22:14:02.212Z,70.04
2022-09-13T22:16:31.867Z,69.79
2022-09-13T22:19:08.522Z,70.14
2022-09-13T22:21:39.062Z,71.20
2022-09-13T22:24:07.807Z,71.16
2022-09-13T22:26:37.705Z,73.51
2022-09-13T22:29:05.140Z,74.68
2022-09-13T22:31:35.188Z,75.18
2022-09-13T22:34:02.303Z,74.68
2022-09-13T22:36:29.545Z,75.19
2022-09-13T22:38:56.361Z,76.29
2022-09-13T22:41:26.308Z,76.88
2022-09-13T22:43:53.488Z,78.05
2022-09-13T22:46:26.002Z,77.42
2022-09-13T22:49:26.754Z,77.05
2022-09-13T22:51:53.406Z,77.95
2022-09-13T22:54:19.986Z,78.19
2022-09-13T22:56:46.893Z,78.47
2022-09-13T22:59:18.754Z,79.92
2022-09-13T23:01:45.878Z,81.04
2022-09-13T23:04:13.274Z,82.20
2022-09-13T23:06:40.690Z,81.86
2022-09-13T23:09:08.437Z,83.16
2022-09-13T23:11:37.269Z,85.79
2022-09-13T23:14:12.438Z,88.32
2022-09-13T23:16:42.340Z,90.03
2022-09-13T23:19:10.049Z,88.73
2022-09-13T23:21:37.582Z,87.71
2022-09-13T23:24:06.570Z,87.47
2022-09-13T23:26:34.097Z,86.84
2022-09-13T23:29:01.835Z,85.58
2022-09-13T23:31:31.235Z,85.74
2022-09-13T23:38:57.851Z,85.50
2022-09-13T23:41:25.813Z,85.17
2022-09-13T23:43:53.494Z,85.47
2022-09-13T23:46:20.476Z,84.94
2022-09-13T23:48:46.932Z,86.18
2022-09-13T23:51:16.938Z,85.88
2022-09-13T23:53:43.772Z,85.12
2022-09-13T23:56:11.620Z,85.08
